createdAt,value
2019-06-26T00:02:28.927Z,29.00
2019-06-26T00:07:32.374Z,29.05
2019-06-26T00:12:35.843Z,29.06
2019-06-26T00:17:39.322Z,29.05
2019-06-26T00:22:42.797Z,29.03
2019-06-26T00:27:46.263Z,29.02
2019-06-26T00:32:49.720Z,29.08
2019-06-26T00:37:53.494Z,29.03
2019-06-26T00:42:56.963Z,29.00
2019-06-26T00:48:00.456Z,29.05
2019-06-26T00:53:05.089Z,29.06
2019-06-26T00:58:08.590Z,29.07
2019-06-26T01:03:12.487Z,29.09
2019-06-26T01:08:15.940Z,29.07
2019-06-26T01:13:19.482Z,29.02
2019-06-26T01:18:22.991Z,28.98
2019-06-26T01:23:26.560Z,28.97
2019-06-26T01:28:30.034Z,28.97
2019-06-26T01:33:33.513Z,28.95
2019-06-26T01:38:37.313Z,28.96
2019-06-26T01:43:40.761Z,28.97
2019-06-26T01:48:44.255Z,28.97
2019-06-26T01:53:48.046Z,28.92
2019-06-26T01:58:51.547Z,28.91
2019-06-26T02:03:54.997Z,28.92
2019-06-26T02:08:58.484Z,28.92
2019-06-26T02:14:03.465Z,28.92
2019-06-26T02:19:08.583Z,28.92
2019-06-26T02:24:12.089Z,28.91
2019-06-26T02:29:15.664Z,28.89
2019-06-26T02:34:19.136Z,28.89
2019-06-26T02:39:22.878Z,28.89
2019-06-26T02:44:26.349Z,28.88
2019-06-26T02:49:31.434Z,28.87
2019-06-26T02:54:34.875Z,28.88
2019-06-26T02:59:38.351Z,28.87
2019-06-26T03:04:41.809Z,28.87
2019-06-26T03:09:45.264Z,28.88
2019-06-26T03:14:48.728Z,28.87
2019-06-26T03:19:52.488Z,28.86
2019-06-26T03:24:55.963Z,28.85
2019-06-26T03:29:59.411Z,28.86
2019-06-26T03:35:02.883Z,28.84
2019-06-26T03:40:07.832Z,28.85
2019-06-26T03:45:24.498Z,28.84
2019-06-26T03:50:17.055Z,28.84
2019-06-26T03:55:20.845Z,28.83
2019-06-26T04:00:39.830Z,28.83
2019-06-26T04:05:43.365Z,28.81
2019-06-26T04:10:46.819Z,28.81
2019-06-26T04:15:51.134Z,28.79
2019-06-26T04:20:54.625Z,28.81
2019-06-26T04:25:59.628Z,28.82
2019-06-26T04:31:03.187Z,28.81
2019-06-26T04:36:06.734Z,28.82
2019-06-26T04:41:10.496Z,28.81
2019-06-26T04:46:13.998Z,28.81
2019-06-26T04:51:17.437Z,28.82
2019-06-26T04:56:20.917Z,28.83
2019-06-26T05:01:24.354Z,28.83
2019-06-26T05:06:27.837Z,28.84
2019-06-26T05:11:31.318Z,28.82
2019-06-26T05:16:34.880Z,28.84
2019-06-26T05:21:38.402Z,28.87
2019-06-26T05:26:41.868Z,28.87
2019-06-26T05:31:45.447Z,28.92
2019-06-26T05:36:48.919Z,28.93
2019-06-26T05:41:52.750Z,28.96
2019-06-26T05:46:56.524Z,28.99
2019-06-26T05:52:02.160Z,29.03
2019-06-26T05:57:05.672Z,29.14
2019-06-26T06:02:09.201Z,29.21
2019-06-26T06:07:12.675Z,29.21
2019-06-26T06:12:16.148Z,29.22
2019-06-26T06:17:19.619Z,29.26
2019-06-26T06:22:23.366Z,29.28
2019-06-26T06:27:26.804Z,29.31
2019-06-26T06:32:30.435Z,29.34
2019-06-26T06:37:33.892Z,29.36
2019-06-26T06:42:37.635Z,29.34
2019-06-26T06:47:41.152Z,29.30
2019-06-26T06:52:44.710Z,29.33
2019-06-26T06:57:48.180Z,29.38
2019-06-26T07:02:51.644Z,29.37
2019-06-26T07:07:55.133Z,29.29
2019-06-26T07:12:58.993Z,29.40
2019-06-26T07:18:02.446Z,29.39
2019-06-26T07:23:06.254Z,29.46
2019-06-26T07:28:09.934Z,29.50
2019-06-26T07:33:13.380Z,29.57
2019-06-26T07:38:16.929Z,29.49
2019-06-26T07:43:20.564Z,29.60
2019-06-26T07:48:24.120Z,29.59
2019-06-26T07:53:27.596Z,29.68
2019-06-26T07:58:31.152Z,29.62
2019-06-26T08:03:34.647Z,29.64
2019-06-26T08:08:38.116Z,29.65
2019-06-26T08:13:41.575Z,29.46
2019-06-26T08:18:45.064Z,29.56
2019-06-26T08:23:48.549Z,29.66
2019-06-26T08:28:52.000Z,29.74
2019-06-26T08:33:55.544Z,29.69
2019-06-26T08:38:59.653Z,29.70
2019-06-26T08:44:03.282Z,29.71
2019-06-26T08:49:21.098Z,29.69
2019-06-26T08:54:11.938Z,29.71
2019-06-26T08:59:15.433Z,29.66
2019-06-26T09:04:18.913Z,29.67
2019-06-26T09:09:22.396Z,29.63
2019-06-26T09:14:25.848Z,29.67
2019-06-26T09:19:29.407Z,29.70
2019-06-26T09:24:32.889Z,29.78
2019-06-26T09:29:36.353Z,29.77
2019-06-26T09:34:39.835Z,29.81
2019-06-26T09:39:43.552Z,29.79
2019-06-26T09:44:47.349Z,29.78
2019-06-26T09:49:50.796Z,29.81
2019-06-26T09:54:54.324Z,29.76
2019-06-26T09:59:57.889Z,29.75
2019-06-26T10:05:01.485Z,29.77
2019-06-26T10:10:06.107Z,29.77
2019-06-26T10:15:10.063Z,29.81
2019-06-26T10:20:14.863Z,29.85
2019-06-26T10:25:18.673Z,29.81
2019-06-26T10:30:22.687Z,29.86
2019-06-26T10:35:26.174Z,29.73
2019-06-26T10:40:29.829Z,29.71
2019-06-26T10:45:36.086Z,29.65
2019-06-26T10:50:48.575Z,29.64
2019-06-26T10:55:44.320Z,29.67
2019-06-26T11:00:47.913Z,29.79
2019-06-26T11:05:51.531Z,29.77
2019-06-26T11:10:55.230Z,29.84
2019-06-26T11:15:58.970Z,29.90
2019-06-26T11:21:02.785Z,29.97
2019-06-26T11:26:06.507Z,30.03
2019-06-26T11:31:10.046Z,29.97
2019-06-26T11:36:13.734Z,29.95
2019-06-26T11:41:17.379Z,29.89
2019-06-26T11:46:21.074Z,29.81
2019-06-26T11:51:24.719Z,29.79
2019-06-26T11:56:28.688Z,29.69
2019-06-26T12:01:32.167Z,29.67
2019-06-26T12:06:35.775Z,29.63
2019-06-26T12:11:39.563Z,29.62
2019-06-26T12:16:43.198Z,29.63
2019-06-26T12:21:46.914Z,29.64
2019-06-26T12:26:50.547Z,29.62
2019-06-26T12:31:54.251Z,29.58
2019-06-26T12:36:57.871Z,29.62
2019-06-26T12:42:01.665Z,29.63
2019-06-26T12:47:05.617Z,29.66
2019-06-26T12:52:09.561Z,29.66
2019-06-26T12:57:13.108Z,29.67
2019-06-26T13:02:16.751Z,29.71
2019-06-26T13:07:20.497Z,29.65
2019-06-26T13:12:24.115Z,29.71
2019-06-26T13:17:27.745Z,29.68
2019-06-26T13:22:31.491Z,29.67
2019-06-26T13:27:35.169Z,29.57
2019-06-26T13:32:38.678Z,29.61
2019-06-26T13:37:42.512Z,29.66
2019-06-26T13:42:46.335Z,29.67
2019-06-26T13:47:50.060Z,29.69
2019-06-26T13:52:53.627Z,29.75
2019-06-26T13:57:57.281Z,29.76
2019-06-26T14:03:01.113Z,29.80
2019-06-26T14:08:04.942Z,29.86
2019-06-26T14:13:08.765Z,29.81
2019-06-26T14:18:12.393Z,29.79
2019-06-26T14:23:15.946Z,29.75
2019-06-26T14:28:19.931Z,29.86
2019-06-26T14:33:23.655Z,29.90
2019-06-26T14:38:27.380Z,29.91
2019-06-26T14:43:30.997Z,29.96
2019-06-26T14:48:34.478Z,29.99
2019-06-26T14:53:38.216Z,29.89
2019-06-26T14:58:41.882Z,29.89
2019-06-26T15:03:45.663Z,29.95
2019-06-26T15:08:49.281Z,29.95
2019-06-26T15:13:52.925Z,29.93
2019-06-26T15:18:56.515Z,29.85
2019-06-26T15:24:00.240Z,29.84
2019-06-26T15:29:04.983Z,29.76
2019-06-26T15:34:08.627Z,29.68
2019-06-26T15:39:12.621Z,29.50
2019-06-26T15:44:16.339Z,29.35
2019-06-26T15:49:19.940Z,29.35
2019-06-26T15:54:23.579Z,29.40
2019-06-26T15:59:30.881Z,29.41
2019-06-26T16:04:35.128Z,29.36
2019-06-26T16:09:38.022Z,29.32
2019-06-26T16:14:41.840Z,29.30
2019-06-26T16:19:45.663Z,29.28
2019-06-26T16:24:49.298Z,29.12
2019-06-26T16:29:52.898Z,29.26
2019-06-26T16:34:57.549Z,29.47
2019-06-26T16:40:01.276Z,29.52
2019-06-26T16:45:06.808Z,29.56
2019-06-26T16:50:10.905Z,29.48
2019-06-26T16:55:14.978Z,29.54
2019-06-26T17:00:19.319Z,29.55
2019-06-26T17:05:23.064Z,29.59
2019-06-26T17:10:26.759Z,29.58
2019-06-26T17:15:30.384Z,29.61
2019-06-26T17:20:33.956Z,29.65
2019-06-26T17:25:37.636Z,29.64
2019-06-26T17:30:41.328Z,29.53
2019-06-26T17:35:45.047Z,29.52
2019-06-26T17:40:48.507Z,29.61
2019-06-26T17:45:52.128Z,29.30
2019-06-26T17:50:55.855Z,29.11
2019-06-26T17:55:59.519Z,29.09
2019-06-26T18:01:03.158Z,29.10
2019-06-26T18:06:07.368Z,29.05
2019-06-26T18:11:10.951Z,29.08
2019-06-26T18:16:14.609Z,29.21
2019-06-26T18:21:18.326Z,29.31
2019-06-26T18:26:22.031Z,29.36
2019-06-26T18:31:25.581Z,29.38
2019-06-26T18:36:33.520Z,29.38
2019-06-26T18:41:36.182Z,29.36
2019-06-26T18:46:39.955Z,29.32
2019-06-26T18:51:43.616Z,29.34
2019-06-26T18:56:47.282Z,29.19
2019-06-26T19:01:50.958Z,29.21
2019-06-26T19:06:54.586Z,29.31
2019-06-26T19:11:58.356Z,29.33
2019-06-26T19:17:02.130Z,29.37
2019-06-26T19:22:06.074Z,29.36
2019-06-26T19:27:09.666Z,29.36
2019-06-26T19:32:13.394Z,29.46
2019-06-26T19:37:17.020Z,29.32
2019-06-26T19:42:20.725Z,29.33
2019-06-26T19:47:24.560Z,29.23
2019-06-26T19:52:31.913Z,29.13
2019-06-26T19:57:35.159Z,29.07
2019-06-26T20:02:38.791Z,29.05
2019-06-26T20:07:42.597Z,29.25
2019-06-26T20:12:46.318Z,29.30
2019-06-26T20:17:49.956Z,29.29
2019-06-26T20:22:53.666Z,29.27
2019-06-26T20:27:57.490Z,28.95
2019-06-26T20:33:01.406Z,28.76
2019-06-26T20:38:06.621Z,28.61
2019-06-26T20:43:10.280Z,28.82
2019-06-26T20:48:13.899Z,28.98
2019-06-26T20:53:17.620Z,29.04
2019-06-26T20:58:21.453Z,29.08
2019-06-26T21:03:25.280Z,29.11
2019-06-26T21:08:29.641Z,29.12
2019-06-26T21:13:33.397Z,29.13
2019-06-26T21:18:37.046Z,29.06
2019-06-26T21:23:42.533Z,29.13
2019-06-26T21:28:46.113Z,29.13
2019-06-26T21:33:49.568Z,29.13
2019-06-26T21:38:53.254Z,29.13
2019-06-26T21:43:56.981Z,29.12
2019-06-26T21:49:00.613Z,29.11
2019-06-26T21:54:05.135Z,29.10
2019-06-26T21:59:08.778Z,29.11
2019-06-26T22:04:12.694Z,29.12
2019-06-26T22:09:17.011Z,29.13
2019-06-26T22:14:20.740Z,29.12
2019-06-26T22:19:24.216Z,29.14
2019-06-26T22:24:28.054Z,29.13
2019-06-26T22:29:31.792Z,29.13
2019-06-26T22:34:35.592Z,29.13
2019-06-26T22:39:39.441Z,29.13
2019-06-26T22:44:43.186Z,29.13
2019-06-26T22:49:46.844Z,29.13
2019-06-26T22:54:50.521Z,29.13
2019-06-26T22:59:54.233Z,29.12
2019-06-26T23:04:58.071Z,29.12
2019-06-26T23:10:01.850Z,29.10
2019-06-26T23:15:08.757Z,29.09
2019-06-26T23:20:13.434Z,29.08
2019-06-26T23:25:17.505Z,29.07
2019-06-26T23:30:21.558Z,29.08
2019-06-26T23:35:25.687Z,29.11
2019-06-26T23:40:29.342Z,29.10
2019-06-26T23:45:32.885Z,29.13
2019-06-26T23:50:36.856Z,29.12
2019-06-26T23:55:40.507Z,29.12
